Time;durP1;ratioP1;P1;durP2;ratioP2;P2;SDS_P1;SDS_P2;PMS_P1;PMS_P2;Temp;Humidity;BMP_temperature;BMP_pressure;BME280_temperature;BME280_humidity;BME280_pressure;Samples;Min_cycle;Max_cycle;Signal;HPM_P1;HPM_P2
2023/04/18 00:00:58;;;;;;;40.15;19.10;;;;;;;;;;5052608;28;20107;-70
2023/04/18 00:03:23;;;;;;;41.55;17.95;;;;;;;;;;5024456;28;20552;-70
2023/04/18 00:05:49;;;;;;;43.00;18.85;;;;;;;;;;5039422;28;20057;-70
2023/04/18 00:08:14;;;;;;;41.10;18.52;;;;;;;;;;5033609;28;20047;-70
2023/04/18 00:10:40;;;;;;;41.40;19.10;;;;;;;;;;5038233;28;20120;-70
2023/04/18 00:13:06;;;;;;;42.08;18.05;;;;;;;;;;5025231;28;20073;-70
2023/04/18 00:15:34;;;;;;;44.58;19.48;;;;;;;;;;5038407;28;20035;-69
2023/04/18 00:18:04;;;;;;;47.25;19.45;;;;;;;;;;5034159;28;20041;-69
2023/04/18 00:20:31;;;;;;;44.20;19.35;;;;;;;;;;5046758;28;20039;-70
2023/04/18 00:22:56;;;;;;;45.38;19.08;;;;;;;;;;5049567;28;20061;-70
2023/04/18 00:25:22;;;;;;;46.13;20.20;;;;;;;;;;5033987;28;20056;-69
2023/04/18 00:27:47;;;;;;;38.58;17.00;;;;;;;;;;5042827;28;20033;-70
2023/04/18 00:30:13;;;;;;;43.83;20.38;;;;;;;;;;5045058;28;20478;-70
2023/04/18 00:32:38;;;;;;;38.30;18.63;;;;;;;;;;5044310;28;20036;-70
2023/04/18 00:35:04;;;;;;;39.17;17.77;;;;;;;;;;5025764;28;20065;-70
2023/04/18 00:37:30;;;;;;;44.30;17.70;;;;;;;;;;5036323;28;20119;-70
2023/04/18 00:39:55;;;;;;;43.33;18.23;;;;;;;;;;5038469;28;20056;-70
2023/04/18 00:42:21;;;;;;;41.17;18.77;;;;;;;;;;5036155;28;20052;-70
2023/04/18 00:44:47;;;;;;;40.22;17.13;;;;;;;;;;5038514;28;20110;-70
2023/04/18 00:47:15;;;;;;;46.30;17.85;;;;;;;;;;5045025;28;20048;-70
2023/04/18 00:49:41;;;;;;;41.60;18.00;;;;;;;;;;5046206;28;20071;-69
2023/04/18 00:52:06;;;;;;;38.13;16.88;;;;;;;;;;5038473;28;20410;-69
2023/04/18 00:54:31;;;;;;;42.30;17.30;;;;;;;;;;5042176;28;20115;-70
2023/04/18 00:56:57;;;;;;;42.33;16.63;;;;;;;;;;5034955;28;20099;-69
2023/04/18 00:59:22;;;;;;;38.03;17.13;;;;;;;;;;5034964;28;20075;-70
2023/04/18 01:01:47;;;;;;;42.65;18.08;;;;;;;;;;5046894;28;20052;-70
2023/04/18 01:04:13;;;;;;;42.55;19.13;;;;;;;;;;5048114;28;20741;-70
2023/04/18 01:06:38;;;;;;;36.35;16.67;;;;;;;;;;5034619;28;20060;-70
2023/04/18 01:09:04;;;;;;;43.40;18.63;;;;;;;;;;5063737;28;20032;-70
2023/04/18 01:11:30;;;;;;;51.38;19.98;;;;;;;;;;5046387;28;20114;-70
2023/04/18 01:14:06;;;;;;;48.65;20.77;;;;;;;;;;5046484;28;20405;-70
2023/04/18 01:16:32;;;;;;;46.88;19.83;;;;;;;;;;5047278;28;20041;-70
2023/04/18 01:18:58;;;;;;;50.88;18.55;;;;;;;;;;5047536;28;20040;-69
2023/04/18 01:21:25;;;;;;;45.25;17.65;;;;;;;;;;5045718;28;20025;-70
2023/04/18 01:23:52;;;;;;;48.20;19.80;;;;;;;;;;5047413;28;20045;-70
2023/04/18 01:26:17;;;;;;;43.28;18.80;;;;;;;;;;5033105;28;20091;-70
2023/04/18 01:28:43;;;;;;;46.05;19.23;;;;;;;;;;5040836;28;20046;-70
2023/04/18 01:31:08;;;;;;;52.45;18.55;;;;;;;;;;5041321;28;20402;-70
2023/04/18 01:33:33;;;;;;;50.53;21.30;;;;;;;;;;5041174;28;20032;-70
2023/04/18 01:35:58;;;;;;;47.05;19.35;;;;;;;;;;5027823;28;20065;-70
2023/04/18 01:38:24;;;;;;;43.22;18.98;;;;;;;;;;5041227;28;20033;-69
2023/04/18 01:40:49;;;;;;;45.50;19.35;;;;;;;;;;5041647;28;20541;-69
2023/04/18 01:43:15;;;;;;;46.15;19.92;;;;;;;;;;5049893;28;20044;-69
2023/04/18 01:45:40;;;;;;;50.53;20.90;;;;;;;;;;5053416;28;20029;-70
2023/04/18 01:48:05;;;;;;;50.90;20.83;;;;;;;;;;5046113;28;20491;-70
2023/04/18 01:50:31;;;;;;;49.05;20.13;;;;;;;;;;5027502;28;20033;-70
2023/04/18 01:52:56;;;;;;;46.92;20.10;;;;;;;;;;5029965;28;20155;-70
2023/04/18 01:55:21;;;;;;;47.88;19.73;;;;;;;;;;5047539;28;20775;-70
2023/04/18 01:57:47;;;;;;;46.25;20.02;;;;;;;;;;5031014;28;20044;-70
2023/04/18 02:00:12;;;;;;;49.78;20.25;;;;;;;;;;5038395;28;20439;-70
2023/04/18 02:02:38;;;;;;;47.38;20.17;;;;;;;;;;5040211;28;20042;-70
2023/04/18 02:05:03;;;;;;;46.75;19.75;;;;;;;;;;5036103;28;20049;-70
2023/04/18 02:07:28;;;;;;;49.33;20.25;;;;;;;;;;5034649;28;20041;-69
2023/04/18 02:09:54;;;;;;;47.63;19.02;;;;;;;;;;5046879;28;20021;-70
2023/04/18 02:12:19;;;;;;;48.35;19.38;;;;;;;;;;5046124;28;20550;-70
2023/04/18 02:14:50;;;;;;;45.88;19.80;;;;;;;;;;5037167;28;20072;-70
2023/04/18 02:17:15;;;;;;;45.53;20.05;;;;;;;;;;5026507;28;20033;-70
2023/04/18 02:19:40;;;;;;;44.05;18.80;;;;;;;;;;5045122;28;20037;-70
2023/04/18 02:22:06;;;;;;;46.22;20.42;;;;;;;;;;5040114;28;20550;-70
2023/04/18 02:24:31;;;;;;;47.25;19.67;;;;;;;;;;5041290;28;20032;-69
2023/04/18 02:26:57;;;;;;;49.83;19.50;;;;;;;;;;5030991;28;20040;-69
2023/04/18 02:29:22;;;;;;;49.78;19.05;;;;;;;;;;5046130;28;20055;-69
2023/04/18 02:31:47;;;;;;;46.38;18.98;;;;;;;;;;5041685;28;20128;-69
2023/04/18 02:34:13;;;;;;;44.25;19.98;;;;;;;;;;5030897;28;20141;-69
2023/04/18 02:36:38;;;;;;;44.53;19.23;;;;;;;;;;5039402;28;20029;-69
2023/04/18 02:39:03;;;;;;;49.97;20.35;;;;;;;;;;5047309;28;20074;-69
2023/04/18 02:41:29;;;;;;;44.25;19.80;;;;;;;;;;5045290;28;20067;-69
2023/04/18 02:43:54;;;;;;;47.63;19.20;;;;;;;;;;5045237;28;20037;-69
2023/04/18 02:46:20;;;;;;;44.45;19.08;;;;;;;;;;5046144;28;20068;-69
2023/04/18 02:48:45;;;;;;;45.03;19.48;;;;;;;;;;5038020;28;20574;-69
2023/04/18 02:51:10;;;;;;;46.53;19.50;;;;;;;;;;5034347;28;20024;-69
2023/04/18 02:53:35;;;;;;;53.08;21.73;;;;;;;;;;5041482;28;20546;-69
2023/04/18 02:56:01;;;;;;;49.53;20.40;;;;;;;;;;5033299;28;20464;-69
2023/04/18 02:58:27;;;;;;;48.95;20.35;;;;;;;;;;5039902;28;20029;-69
2023/04/18 03:00:53;;;;;;;48.33;19.70;;;;;;;;;;5034756;28;20028;-69
2023/04/18 03:03:19;;;;;;;45.78;19.70;;;;;;;;;;5037311;28;20132;-68
2023/04/18 03:05:45;;;;;;;48.80;18.50;;;;;;;;;;5028808;28;20141;-69
2023/04/18 03:08:10;;;;;;;46.20;19.15;;;;;;;;;;5049938;28;20044;-69
2023/04/18 03:10:36;;;;;;;45.13;18.30;;;;;;;;;;5048968;28;20530;-69
2023/04/18 03:13:01;;;;;;;46.53;18.70;;;;;;;;;;5037689;28;20606;-69
2023/04/18 03:15:27;;;;;;;54.25;20.13;;;;;;;;;;5058141;28;20090;-69
2023/04/18 03:17:52;;;;;;;41.33;17.40;;;;;;;;;;5032947;28;20033;-69
2023/04/18 03:20:18;;;;;;;45.88;18.17;;;;;;;;;;5043726;28;20704;-69
2023/04/18 03:22:43;;;;;;;48.17;17.63;;;;;;;;;;5045609;28;20041;-69
2023/04/18 03:25:09;;;;;;;45.38;18.13;;;;;;;;;;5032761;28;20140;-69
2023/04/18 03:27:34;;;;;;;44.80;17.25;;;;;;;;;;5040928;28;20033;-69
2023/04/18 03:30:01;;;;;;;44.85;18.75;;;;;;;;;;5028790;28;20144;-69
2023/04/18 03:32:26;;;;;;;42.65;18.52;;;;;;;;;;5027160;28;20550;-69
2023/04/18 03:34:51;;;;;;;47.60;18.88;;;;;;;;;;5034019;28;20041;-69
2023/04/18 03:37:17;;;;;;;52.70;18.88;;;;;;;;;;5037812;28;20658;-69
2023/04/18 03:39:42;;;;;;;42.15;19.63;;;;;;;;;;5038570;28;20024;-69
2023/04/18 03:42:07;;;;;;;45.38;19.23;;;;;;;;;;5025562;28;20090;-69
2023/04/18 03:44:33;;;;;;;48.10;19.33;;;;;;;;;;5026100;28;20494;-69
2023/04/18 03:46:58;;;;;;;44.20;18.95;;;;;;;;;;5037218;28;20038;-69
2023/04/18 03:49:24;;;;;;;47.83;19.95;;;;;;;;;;5038041;28;20049;-69
2023/04/18 03:51:49;;;;;;;52.78;20.35;;;;;;;;;;5044249;28;20028;-69
2023/04/18 03:54:15;;;;;;;50.28;18.95;;;;;;;;;;5030483;28;20505;-69
2023/04/18 03:56:40;;;;;;;51.53;20.73;;;;;;;;;;5037849;28;20474;-69
2023/04/18 03:59:06;;;;;;;46.33;18.58;;;;;;;;;;5023195;28;20478;-69
2023/04/18 04:01:31;;;;;;;49.53;19.75;;;;;;;;;;5036641;28;20140;-69
2023/04/18 04:03:57;;;;;;;45.92;19.60;;;;;;;;;;5024675;28;20041;-69
2023/04/18 04:06:23;;;;;;;45.40;19.13;;;;;;;;;;5024784;28;20057;-69
2023/04/18 04:08:48;;;;;;;47.00;18.38;;;;;;;;;;5024601;28;20044;-69
2023/04/18 04:11:13;;;;;;;51.03;20.08;;;;;;;;;;5024578;28;20046;-69
2023/04/18 04:13:39;;;;;;;43.15;17.77;;;;;;;;;;5037488;28;20033;-69
2023/04/18 04:16:04;;;;;;;47.78;19.77;;;;;;;;;;5031239;28;20510;-69
2023/04/18 04:18:30;;;;;;;49.20;18.60;;;;;;;;;;5042054;28;20032;-69
2023/04/18 04:20:58;;;;;;;47.75;19.50;;;;;;;;;;5044237;28;20043;-69
2023/04/18 04:23:24;;;;;;;48.13;18.50;;;;;;;;;;5043616;28;20036;-69
2023/04/18 04:25:52;;;;;;;49.33;18.30;;;;;;;;;;5031041;28;20033;-69
2023/04/18 04:28:21;;;;;;;47.35;19.30;;;;;;;;;;5040930;28;20057;-69
2023/04/18 04:30:47;;;;;;;42.38;17.92;;;;;;;;;;5041779;28;20036;-69
2023/04/18 04:33:13;;;;;;;45.80;19.33;;;;;;;;;;5030884;28;20061;-69
2023/04/18 04:35:38;;;;;;;47.45;19.33;;;;;;;;;;5031817;28;20063;-69
2023/04/18 04:38:04;;;;;;;44.08;18.20;;;;;;;;;;5029848;28;20029;-69
2023/04/18 04:40:29;;;;;;;45.53;17.50;;;;;;;;;;5024662;28;20041;-69
2023/04/18 04:42:55;;;;;;;44.45;17.52;;;;;;;;;;5024707;28;20096;-69
2023/04/18 04:45:22;;;;;;;43.80;18.27;;;;;;;;;;5043457;28;20029;-69
2023/04/18 04:47:47;;;;;;;43.03;17.88;;;;;;;;;;5030386;28;20041;-69
2023/04/18 04:50:14;;;;;;;42.88;18.63;;;;;;;;;;5024263;28;20034;-69
2023/04/18 04:52:41;;;;;;;38.72;17.55;;;;;;;;;;5036695;28;20578;-69
2023/04/18 04:55:06;;;;;;;44.22;18.92;;;;;;;;;;5024405;28;20860;-69
2023/04/18 04:57:32;;;;;;;41.10;17.25;;;;;;;;;;5024188;28;20048;-69
2023/04/18 04:59:57;;;;;;;41.25;16.33;;;;;;;;;;5030947;28;20090;-69
2023/04/18 05:02:22;;;;;;;36.30;15.77;;;;;;;;;;5029122;28;20095;-69
2023/04/18 05:04:48;;;;;;;41.13;16.83;;;;;;;;;;5024139;28;20053;-69
2023/04/18 05:07:14;;;;;;;38.50;17.98;;;;;;;;;;5022280;28;20042;-69
2023/04/18 05:09:39;;;;;;;41.08;17.10;;;;;;;;;;5024370;28;20026;-69
2023/04/18 05:12:05;;;;;;;42.40;17.15;;;;;;;;;;5036566;28;20147;-69
2023/04/18 05:14:30;;;;;;;36.35;16.88;;;;;;;;;;5028612;28;20080;-69
2023/04/18 05:16:56;;;;;;;38.17;16.70;;;;;;;;;;5037241;28;20546;-69
2023/04/18 05:19:21;;;;;;;40.35;19.52;;;;;;;;;;5034223;28;20051;-69
2023/04/18 05:21:47;;;;;;;45.03;18.45;;;;;;;;;;5035898;28;20025;-69
2023/04/18 05:24:12;;;;;;;57.95;19.98;;;;;;;;;;5043489;28;20053;-69
2023/04/18 05:26:38;;;;;;;40.70;16.92;;;;;;;;;;5031995;28;20033;-69
2023/04/18 05:29:04;;;;;;;36.35;15.45;;;;;;;;;;5044324;28;20064;-69
2023/04/18 05:31:29;;;;;;;40.75;18.30;;;;;;;;;;5030058;28;20576;-69
2023/04/18 05:33:55;;;;;;;39.40;18.02;;;;;;;;;;5034973;28;20125;-69
2023/04/18 05:36:21;;;;;;;44.70;19.35;;;;;;;;;;5041030;28;20048;-69
2023/04/18 05:38:46;;;;;;;42.25;18.38;;;;;;;;;;5040667;28;20120;-69
2023/04/18 05:41:11;;;;;;;36.55;15.07;;;;;;;;;;5039305;28;20120;-69
2023/04/18 05:43:37;;;;;;;32.38;14.75;;;;;;;;;;5044910;28;20123;-69
2023/04/18 05:46:02;;;;;;;31.20;14.77;;;;;;;;;;5033642;28;20043;-69
2023/04/18 05:48:27;;;;;;;38.03;16.73;;;;;;;;;;5041453;28;20025;-69
2023/04/18 05:50:53;;;;;;;36.67;15.32;;;;;;;;;;5053965;28;20045;-69
2023/04/18 05:53:18;;;;;;;33.42;14.75;;;;;;;;;;5052046;28;20033;-69
2023/04/18 05:55:45;;;;;;;37.30;16.63;;;;;;;;;;5052896;28;20048;-69
2023/04/18 05:58:10;;;;;;;40.53;16.25;;;;;;;;;;5041375;28;20075;-69
2023/04/18 06:00:36;;;;;;;37.95;14.98;;;;;;;;;;5039581;28;20029;-69
2023/04/18 06:03:01;;;;;;;33.47;14.90;;;;;;;;;;5026554;28;20033;-70
2023/04/18 06:05:27;;;;;;;39.72;14.05;;;;;;;;;;5026389;28;20065;-70
2023/04/18 06:07:52;;;;;;;35.28;15.75;;;;;;;;;;5031161;28;20041;-69
2023/04/18 06:10:18;;;;;;;36.75;14.55;;;;;;;;;;5047213;28;20036;-70
2023/04/18 06:12:43;;;;;;;31.65;13.75;;;;;;;;;;5044654;28;20017;-69
2023/04/18 06:15:09;;;;;;;30.90;15.15;;;;;;;;;;5034998;28;20030;-70
2023/04/18 06:17:35;;;;;;;36.15;14.82;;;;;;;;;;5026969;28;20030;-70
2023/04/18 06:20:00;;;;;;;30.70;14.05;;;;;;;;;;5039097;28;20916;-71
2023/04/18 06:22:26;;;;;;;26.13;12.45;;;;;;;;;;5039335;28;20033;-71
2023/04/18 06:24:51;;;;;;;33.05;13.52;;;;;;;;;;5027167;28;20027;-70
2023/04/18 06:27:16;;;;;;;31.52;14.63;;;;;;;;;;5033951;28;20063;-70
2023/04/18 06:29:42;;;;;;;36.78;14.00;;;;;;;;;;5039666;28;20111;-70
2023/04/18 06:32:08;;;;;;;26.67;10.90;;;;;;;;;;5045177;28;20036;-70
2023/04/18 06:34:33;;;;;;;27.52;12.85;;;;;;;;;;5039828;28;20116;-69
2023/04/18 06:36:59;;;;;;;31.63;14.40;;;;;;;;;;5044333;28;20109;-69
2023/04/18 06:39:24;;;;;;;29.95;14.32;;;;;;;;;;5046954;28;20033;-70
2023/04/18 06:41:49;;;;;;;28.27;13.25;;;;;;;;;;5044328;28;20029;-69
2023/04/18 06:44:15;;;;;;;31.85;12.80;;;;;;;;;;5044049;28;20044;-70
2023/04/18 06:46:41;;;;;;;23.92;11.45;;;;;;;;;;5044598;28;20083;-70
2023/04/18 06:49:06;;;;;;;27.38;13.65;;;;;;;;;;5034106;28;20045;-71
2023/04/18 06:51:32;;;;;;;30.13;11.95;;;;;;;;;;5041604;28;20086;-70
2023/04/18 06:53:58;;;;;;;30.90;12.88;;;;;;;;;;5035494;28;20537;-70
2023/04/18 06:56:23;;;;;;;27.75;12.45;;;;;;;;;;5029393;28;20036;-70
2023/04/18 06:58:51;;;;;;;34.05;12.13;;;;;;;;;;5034947;28;20124;-70
2023/04/18 07:01:17;;;;;;;24.98;11.48;;;;;;;;;;5035945;28;20110;-70
2023/04/18 07:03:42;;;;;;;27.80;13.90;;;;;;;;;;5042815;28;20063;-70
2023/04/18 07:06:09;;;;;;;27.77;12.95;;;;;;;;;;5036116;28;20120;-69
2023/04/18 07:08:34;;;;;;;27.63;13.23;;;;;;;;;;5042206;28;20033;-69
2023/04/18 07:11:00;;;;;;;28.45;13.15;;;;;;;;;;5038980;28;20033;-69
2023/04/18 07:13:25;;;;;;;26.98;11.52;;;;;;;;;;5041410;28;20026;-70
2023/04/18 07:15:51;;;;;;;34.22;11.95;;;;;;;;;;5050668;28;20123;-70
2023/04/18 07:18:16;;;;;;;26.77;12.40;;;;;;;;;;5045976;28;20049;-70
2023/04/18 07:20:41;;;;;;;23.13;10.82;;;;;;;;;;5044100;28;20124;-68
2023/04/18 07:23:09;;;;;;;25.23;12.30;;;;;;;;;;5035328;28;20580;-70
2023/04/18 07:25:35;;;;;;;31.50;11.77;;;;;;;;;;5046493;28;20035;-70
2023/04/18 07:28:00;;;;;;;21.60;11.15;;;;;;;;;;5044632;28;20032;-69
2023/04/18 07:30:25;;;;;;;27.02;11.75;;;;;;;;;;5041585;28;20041;-70
2023/04/18 07:32:51;;;;;;;20.70;10.45;;;;;;;;;;5042825;28;20618;-70
2023/04/18 07:35:16;;;;;;;19.30;9.85;;;;;;;;;;5029965;28;20583;-70
2023/04/18 07:37:42;;;;;;;21.08;9.75;;;;;;;;;;5045782;28;20477;-70
2023/04/18 07:40:07;;;;;;;22.02;9.77;;;;;;;;;;5044750;28;20020;-70
2023/04/18 07:42:33;;;;;;;23.92;12.13;;;;;;;;;;5039451;28;20850;-70
2023/04/18 07:44:58;;;;;;;27.45;11.50;;;;;;;;;;5038370;28;20584;-70
2023/04/18 07:47:25;;;;;;;18.90;10.27;;;;;;;;;;5045117;28;20598;-70
2023/04/18 07:49:51;;;;;;;25.30;12.32;;;;;;;;;;5043530;28;20495;-70
2023/04/18 07:52:16;;;;;;;21.63;10.88;;;;;;;;;;5045312;28;20024;-71
2023/04/18 07:54:41;;;;;;;23.38;12.25;;;;;;;;;;5044050;28;20086;-70
2023/04/18 07:57:07;;;;;;;25.00;11.63;;;;;;;;;;5042066;28;20116;-72
2023/04/18 07:59:32;;;;;;;26.35;10.95;;;;;;;;;;5040968;28;20133;-70
2023/04/18 08:01:57;;;;;;;21.23;10.52;;;;;;;;;;5038549;28;20033;-69
2023/04/18 08:04:23;;;;;;;22.88;9.98;;;;;;;;;;5034158;28;20426;-69
2023/04/18 08:06:48;;;;;;;26.10;10.45;;;;;;;;;;5040996;28;20075;-70
2023/04/18 08:09:13;;;;;;;26.70;11.75;;;;;;;;;;5027002;28;20041;-70
2023/04/18 08:11:41;;;;;;;20.52;11.43;;;;;;;;;;5024544;28;20200;-70
2023/04/18 08:14:06;;;;;;;22.40;10.20;;;;;;;;;;5025112;28;20034;-70
2023/04/18 08:16:31;;;;;;;22.55;11.25;;;;;;;;;;5039306;28;20044;-71
2023/04/18 08:18:57;;;;;;;22.75;10.63;;;;;;;;;;5038925;28;20044;-70
2023/04/18 08:21:22;;;;;;;22.88;11.93;;;;;;;;;;5032093;28;20037;-71
2023/04/18 08:23:48;;;;;;;30.15;11.15;;;;;;;;;;5024411;28;20026;-70
2023/04/18 08:26:13;;;;;;;23.45;10.98;;;;;;;;;;5023843;28;20052;-70
2023/04/18 08:28:38;;;;;;;16.73;8.25;;;;;;;;;;5037541;28;20021;-69
2023/04/18 08:31:04;;;;;;;26.92;13.25;;;;;;;;;;5026294;28;20022;-70
2023/04/18 08:33:30;;;;;;;23.70;10.27;;;;;;;;;;5044774;28;20029;-70
2023/04/18 08:35:55;;;;;;;19.15;10.18;;;;;;;;;;5041516;28;20037;-69
2023/04/18 08:38:20;;;;;;;22.10;11.18;;;;;;;;;;5046280;28;20167;-70
2023/04/18 08:40:46;;;;;;;23.40;12.85;;;;;;;;;;5050277;28;20159;-70
2023/04/18 08:43:13;;;;;;;25.23;12.70;;;;;;;;;;5044964;28;20013;-69
2023/04/18 08:45:42;;;;;;;25.63;10.95;;;;;;;;;;5032155;28;20045;-70
2023/04/18 08:48:15;;;;;;;20.17;10.52;;;;;;;;;;5027542;28;20064;-70
2023/04/18 08:50:40;;;;;;;25.73;10.68;;;;;;;;;;5038679;28;20029;-70
2023/04/18 08:53:06;;;;;;;23.38;11.80;;;;;;;;;;5040436;28;20033;-70
2023/04/18 08:55:34;;;;;;;22.38;11.82;;;;;;;;;;5042735;28;20021;-70
2023/04/18 08:58:00;;;;;;;23.20;11.27;;;;;;;;;;5029644;28;20029;-70
2023/04/18 09:00:28;;;;;;;26.65;10.40;;;;;;;;;;5042635;28;20033;-70
2023/04/18 09:02:55;;;;;;;22.52;11.68;;;;;;;;;;5034787;28;20049;-69
2023/04/18 09:05:22;;;;;;;21.77;12.02;;;;;;;;;;5034406;28;20048;-70
2023/04/18 09:07:49;;;;;;;26.05;13.52;;;;;;;;;;5042804;28;20029;-69
2023/04/18 09:10:32;;;;;;;24.75;11.95;;;;;;;;;;5047292;28;20044;-70
2023/04/18 09:12:59;;;;;;;24.45;12.55;;;;;;;;;;5044614;28;20042;-71
2023/04/18 09:15:27;;;;;;;23.13;12.10;;;;;;;;;;5043716;28;20065;-70
2023/04/18 09:17:56;;;;;;;27.08;12.70;;;;;;;;;;5034212;28;20037;-70
2023/04/18 09:20:33;;;;;;;25.58;12.43;;;;;;;;;;5048928;28;20126;-69
2023/04/18 09:22:59;;;;;;;24.48;12.32;;;;;;;;;;5044000;28;20064;-70
2023/04/18 09:25:26;;;;;;;25.30;12.65;;;;;;;;;;5044982;28;20075;-70
2023/04/18 09:27:52;;;;;;;23.60;12.10;;;;;;;;;;5042649;28;20044;-70
2023/04/18 09:30:29;;;;;;;23.50;12.32;;;;;;;;;;5028532;28;20105;-70
2023/04/18 09:32:59;;;;;;;27.77;12.85;;;;;;;;;;5026934;28;20446;-70
2023/04/18 09:35:25;;;;;;;23.70;13.05;;;;;;;;;;5036375;28;20517;-70
2023/04/18 09:37:50;;;;;;;28.20;13.02;;;;;;;;;;5047963;28;20033;-70
2023/04/18 09:40:17;;;;;;;32.08;15.57;;;;;;;;;;5034821;28;20025;-70
2023/04/18 09:42:43;;;;;;;27.85;14.80;;;;;;;;;;5048285;28;20056;-69
2023/04/18 09:45:09;;;;;;;25.27;13.52;;;;;;;;;;5044605;28;20153;-69
2023/04/18 09:47:35;;;;;;;26.85;13.82;;;;;;;;;;5045624;28;20052;-70
2023/04/18 09:50:09;;;;;;;28.30;14.00;;;;;;;;;;5045434;28;20498;-69
2023/04/18 09:52:40;;;;;;;25.08;12.68;;;;;;;;;;5045527;28;20024;-69
2023/04/18 09:55:08;;;;;;;23.30;12.13;;;;;;;;;;5040040;28;20025;-70
2023/04/18 09:57:34;;;;;;;26.33;13.18;;;;;;;;;;5028491;28;20049;-69
2023/04/18 10:00:13;;;;;;;29.88;14.30;;;;;;;;;;5031480;28;20044;-70
2023/04/18 10:03:17;;;;;;;29.00;13.93;;;;;;;;;;5032024;28;20040;-70
2023/04/18 10:05:43;;;;;;;26.02;13.23;;;;;;;;;;5041536;28;20045;-69
2023/04/18 10:08:09;;;;;;;25.25;13.75;;;;;;;;;;5047152;28;20090;-70
2023/04/18 10:10:35;;;;;;;27.25;13.95;;;;;;;;;;5046730;28;20028;-69
2023/04/18 10:13:01;;;;;;;27.23;13.90;;;;;;;;;;5045264;28;20020;-69
2023/04/18 10:15:29;;;;;;;28.40;14.82;;;;;;;;;;5030235;28;20051;-70
2023/04/18 10:18:00;;;;;;;26.50;13.93;;;;;;;;;;5033447;28;20041;-70
2023/04/18 10:20:28;;;;;;;24.80;13.43;;;;;;;;;;5028804;28;20033;-70
2023/04/18 10:22:54;;;;;;;30.25;14.40;;;;;;;;;;5039794;28;20041;-69
2023/04/18 10:25:38;;;;;;;26.05;13.93;;;;;;;;;;5043519;28;20139;-69
2023/04/18 10:28:07;;;;;;;28.58;15.15;;;;;;;;;;5045340;28;20045;-70
2023/04/18 10:30:42;;;;;;;27.13;14.45;;;;;;;;;;5046508;28;20045;-70
2023/04/18 10:33:29;;;;;;;26.05;15.38;;;;;;;;;;5045873;28;20037;-70
2023/04/18 10:36:12;;;;;;;27.45;12.57;;;;;;;;;;5045683;28;20039;-70
2023/04/18 10:38:46;;;;;;;26.45;12.98;;;;;;;;;;5031242;28;20031;-70
2023/04/18 10:41:14;;;;;;;26.73;13.73;;;;;;;;;;5042897;28;20123;-69
2023/04/18 10:44:05;;;;;;;20.75;11.68;;;;;;;;;;5044701;28;20074;-69
2023/04/18 10:46:30;;;;;;;21.23;12.60;;;;;;;;;;5028662;28;20053;-70
2023/04/18 10:49:22;;;;;;;26.00;12.02;;;;;;;;;;5026295;28;20111;-70
2023/04/18 10:51:49;;;;;;;22.27;11.88;;;;;;;;;;5033432;28;20048;-70
2023/04/18 10:54:53;;;;;;;22.35;11.88;;;;;;;;;;5046079;28;20131;-70
2023/04/18 10:57:18;;;;;;;19.23;11.38;;;;;;;;;;5024784;28;20045;-70
2023/04/18 10:59:49;;;;;;;21.65;11.10;;;;;;;;;;5030210;28;20055;-70
2023/04/18 11:02:28;;;;;;;24.08;12.38;;;;;;;;;;5033189;28;20041;-70
2023/04/18 11:04:59;;;;;;;21.70;11.02;;;;;;;;;;5032284;28;20053;-70
2023/04/18 11:07:36;;;;;;;21.33;12.23;;;;;;;;;;5025276;28;20026;-69
2023/04/18 11:10:06;;;;;;;20.58;11.02;;;;;;;;;;5025399;28;20418;-70
2023/04/18 11:12:33;;;;;;;18.42;10.68;;;;;;;;;;5026671;28;20144;-70
2023/04/18 11:15:03;;;;;;;21.25;11.57;;;;;;;;;;5036074;28;20041;-70
2023/04/18 11:17:32;;;;;;;21.95;11.13;;;;;;;;;;5040882;28;20618;-70
2023/04/18 11:20:13;;;;;;;23.13;12.32;;;;;;;;;;5034703;28;20117;-70
2023/04/18 11:22:51;;;;;;;25.73;11.38;;;;;;;;;;5037779;28;20025;-69
2023/04/18 11:25:18;;;;;;;22.13;11.45;;;;;;;;;;5044224;28;20064;-69
2023/04/18 11:27:48;;;;;;;20.67;10.90;;;;;;;;;;5045446;28;20112;-70
2023/04/18 11:30:14;;;;;;;22.15;11.63;;;;;;;;;;5038866;28;20469;-70
2023/04/18 11:32:39;;;;;;;20.65;11.45;;;;;;;;;;5037500;28;20035;-70
2023/04/18 11:35:08;;;;;;;20.75;11.30;;;;;;;;;;5044398;28;20037;-69
2023/04/18 11:37:34;;;;;;;22.58;11.70;;;;;;;;;;5035097;28;20029;-70
2023/04/18 11:40:01;;;;;;;22.80;11.27;;;;;;;;;;5038084;28;20018;-70
2023/04/18 11:42:29;;;;;;;22.33;11.65;;;;;;;;;;5038259;28;20561;-70
2023/04/18 11:44:54;;;;;;;25.02;11.90;;;;;;;;;;5039590;28;20030;-70
2023/04/18 11:47:23;;;;;;;21.25;11.43;;;;;;;;;;5025058;28;20037;-70
2023/04/18 11:49:55;;;;;;;22.85;11.85;;;;;;;;;;5037822;28;20025;-70
2023/04/18 11:52:20;;;;;;;21.33;11.35;;;;;;;;;;5036170;28;20100;-68
2023/04/18 11:54:45;;;;;;;22.30;11.77;;;;;;;;;;5042856;28;20112;-69
2023/04/18 11:57:25;;;;;;;17.30;8.93;;;;;;;;;;5034713;28;20113;-71
2023/04/18 11:59:58;;;;;;;22.98;11.55;;;;;;;;;;5025285;28;20037;-71
2023/04/18 12:02:27;;;;;;;20.85;11.77;;;;;;;;;;5037225;28;20044;-71
2023/04/18 12:04:57;;;;;;;19.38;11.25;;;;;;;;;;5036810;28;20042;-71
2023/04/18 12:07:49;;;;;;;17.02;10.13;;;;;;;;;;5025680;28;20028;-71
2023/04/18 12:10:29;;;;;;;19.20;9.55;;;;;;;;;;5033472;28;20852;-71
2023/04/18 12:13:00;;;;;;;21.17;12.00;;;;;;;;;;5045130;28;20088;-71
2023/04/18 12:15:27;;;;;;;20.75;11.05;;;;;;;;;;5044732;28;20410;-71
2023/04/18 12:18:00;;;;;;;20.30;10.18;;;;;;;;;;5030004;28;20620;-71
2023/04/18 12:20:48;;;;;;;16.40;10.65;;;;;;;;;;5024913;28;20037;-71
2023/04/18 12:23:34;;;;;;;19.55;11.18;;;;;;;;;;5024670;28;20116;-71
2023/04/18 12:26:17;;;;;;;18.70;11.40;;;;;;;;;;5035848;28;20044;-71
2023/04/18 12:28:44;;;;;;;19.08;11.20;;;;;;;;;;5024912;28;20070;-71
2023/04/18 12:31:10;;;;;;;19.08;10.05;;;;;;;;;;5037502;28;20021;-70
2023/04/18 12:33:35;;;;;;;18.48;10.10;;;;;;;;;;5036247;28;20163;-71
2023/04/18 12:36:01;;;;;;;17.65;10.18;;;;;;;;;;5041023;28;20103;-72
2023/04/18 12:38:27;;;;;;;19.00;10.10;;;;;;;;;;5027283;28;20043;-71
2023/04/18 12:40:52;;;;;;;18.70;11.00;;;;;;;;;;5025359;28;20045;-71
2023/04/18 12:43:18;;;;;;;17.50;10.63;;;;;;;;;;5045366;28;20116;-71
2023/04/18 12:45:48;;;;;;;19.13;10.88;;;;;;;;;;5050974;28;20045;-71
2023/04/18 12:48:13;;;;;;;22.73;12.50;;;;;;;;;;5045949;28;20037;-71
2023/04/18 12:50:38;;;;;;;20.23;12.95;;;;;;;;;;5043332;28;20040;-71
2023/04/18 12:53:04;;;;;;;19.75;12.05;;;;;;;;;;5039944;28;20029;-71
2023/04/18 12:55:30;;;;;;;22.23;12.90;;;;;;;;;;5035068;28;20029;-71
2023/04/18 12:57:56;;;;;;;21.45;12.63;;;;;;;;;;5038998;28;20123;-71
2023/04/18 13:00:24;;;;;;;22.08;13.65;;;;;;;;;;5034804;28;20037;-71
2023/04/18 13:02:51;;;;;;;26.20;13.95;;;;;;;;;;5026407;28;20037;-71
2023/04/18 13:05:18;;;;;;;22.05;12.07;;;;;;;;;;5028935;28;20518;-71
2023/04/18 13:07:43;;;;;;;22.00;12.60;;;;;;;;;;5022681;28;20037;-71
2023/04/18 13:10:11;;;;;;;23.80;12.82;;;;;;;;;;5024932;28;20052;-71
2023/04/18 13:12:37;;;;;;;16.95;9.98;;;;;;;;;;5038239;28;20038;-71
2023/04/18 13:15:04;;;;;;;25.50;11.68;;;;;;;;;;5029356;28;20037;-71
2023/04/18 13:17:29;;;;;;;24.42;12.00;;;;;;;;;;5041480;28;20033;-71
2023/04/18 13:19:55;;;;;;;17.83;11.60;;;;;;;;;;5033091;28;20040;-71
2023/04/18 13:22:20;;;;;;;23.25;11.50;;;;;;;;;;5036345;28;20025;-71
2023/04/18 13:24:46;;;;;;;19.48;10.98;;;;;;;;;;5041660;28;20452;-71
2023/04/18 13:27:13;;;;;;;17.75;10.65;;;;;;;;;;5031610;28;20680;-71
2023/04/18 13:29:40;;;;;;;22.77;11.98;;;;;;;;;;5030819;28;20072;-71
2023/04/18 13:32:06;;;;;;;14.57;8.77;;;;;;;;;;5035911;28;20539;-71
2023/04/18 13:34:41;;;;;;;17.65;10.85;;;;;;;;;;5038217;28;20025;-71
2023/04/18 13:37:06;;;;;;;16.02;9.82;;;;;;;;;;5044333;28;20052;-71
2023/04/18 13:39:32;;;;;;;16.70;9.20;;;;;;;;;;5042252;28;20037;-71
2023/04/18 13:41:58;;;;;;;18.50;10.23;;;;;;;;;;5029584;28;20136;-71
2023/04/18 13:44:24;;;;;;;15.63;8.75;;;;;;;;;;5031277;28;20492;-71
2023/04/18 13:46:50;;;;;;;16.10;9.40;;;;;;;;;;5033090;28;20052;-71
2023/04/18 13:49:15;;;;;;;15.32;10.07;;;;;;;;;;5027991;28;20056;-71
2023/04/18 13:51:41;;;;;;;14.48;8.40;;;;;;;;;;5044129;28;20542;-71
2023/04/18 13:54:06;;;;;;;13.20;9.38;;;;;;;;;;5044050;28;20608;-70
2023/04/18 13:56:31;;;;;;;17.63;9.65;;;;;;;;;;5041473;28;20048;-71
2023/04/18 13:58:57;;;;;;;18.90;11.88;;;;;;;;;;5028613;28;20025;-71
2023/04/18 14:01:22;;;;;;;14.25;8.68;;;;;;;;;;5042283;28;20045;-71
2023/04/18 14:03:48;;;;;;;15.77;7.32;;;;;;;;;;5040343;28;20036;-71
2023/04/18 14:06:13;;;;;;;15.57;9.90;;;;;;;;;;5047997;28;20053;-71
2023/04/18 14:08:39;;;;;;;13.32;9.55;;;;;;;;;;5046629;28;20063;-71
2023/04/18 14:11:05;;;;;;;12.63;8.25;;;;;;;;;;5044593;28;20036;-71
2023/04/18 14:13:31;;;;;;;17.05;8.50;;;;;;;;;;5047021;28;20036;-71
2023/04/18 14:15:56;;;;;;;13.75;8.73;;;;;;;;;;5041441;28;20032;-70
2023/04/18 14:18:23;;;;;;;13.77;8.10;;;;;;;;;;5044435;28;20029;-69